sensor_id;sensor_type;location;lat;lon;timestamp;temperature;humidity
21001;DHT22;10658;50.920;12.238;2023-09-18T00:03:52;17.20;99.90
21001;DHT22;10658;50.920;12.238;2023-09-18T00:07:53;17.20;99.90
21001;DHT22;10658;50.920;12.238;2023-09-18T00:11:53;17.10;99.90
21001;DHT22;10658;50.920;12.238;2023-09-18T00:15:55;17.00;99.90
21001;DHT22;10658;50.920;12.238;2023-09-18T00:19:56;17.00;99.90
21001;DHT22;10658;50.920;12.238;2023-09-18T00:23:57;17.00;99.90
21001;DHT22;10658;50.920;12.238;2023-09-18T00:28:00;16.90;99.90
21001;DHT22;10658;50.920;12.238;2023-09-18T00:32:01;16.80;99.90
21001;DHT22;10658;50.920;12.238;2023-09-18T00:36:02;16.80;99.90
21001;DHT22;10658;50.920;12.238;2023-09-18T00:40:03;16.80;99.90
21001;DHT22;10658;50.920;12.238;2023-09-18T00:44:05;16.70;99.90
21001;DHT22;10658;50.920;12.238;2023-09-18T00:48:06;16.70;99.90
21001;DHT22;10658;50.920;12.238;2023-09-18T00:52:08;16.70;99.90
21001;DHT22;10658;50.920;12.238;2023-09-18T00:56:10;16.60;99.90
21001;DHT22;10658;50.920;12.238;2023-09-18T01:00:12;16.60;99.90
21001;DHT22;10658;50.920;12.238;2023-09-18T01:04:17;16.60;99.90
21001;DHT22;10658;50.920;12.238;2023-09-18T01:08:19;16.50;99.90
21001;DHT22;10658;50.920;12.238;2023-09-18T01:12:36;16.40;99.90
21001;DHT22;10658;50.920;12.238;2023-09-18T01:16:53;16.40;99.90
21001;DHT22;10658;50.920;12.238;2023-09-18T01:20:55;16.40;99.90
21001;DHT22;10658;50.920;12.238;2023-09-18T01:24:56;16.40;99.90
21001;DHT22;10658;50.920;12.238;2023-09-18T01:28:57;16.30;99.90
21001;DHT22;10658;50.920;12.238;2023-09-18T01:32:59;16.30;99.90
21001;DHT22;10658;50.920;12.238;2023-09-18T01:37:00;16.20;99.90
21001;DHT22;10658;50.920;12.238;2023-09-18T01:41:01;16.20;99.90
21001;DHT22;10658;50.920;12.238;2023-09-18T01:45:02;16.10;99.90
21001;DHT22;10658;50.920;12.238;2023-09-18T01:49:05;16.10;99.90
21001;DHT22;10658;50.920;12.238;2023-09-18T01:53:06;16.00;99.90
21001;DHT22;10658;50.920;12.238;2023-09-18T01:57:07;16.00;99.90
21001;DHT22;10658;50.920;12.238;2023-09-18T02:01:08;16.00;99.90
21001;DHT22;10658;50.920;12.238;2023-09-18T02:05:09;15.90;99.90
21001;DHT22;10658;50.920;12.238;2023-09-18T02:09:10;15.80;99.90
21001;DHT22;10658;50.920;12.238;2023-09-18T02:13:11;15.80;99.90
21001;DHT22;10658;50.920;12.238;2023-09-18T02:17:12;15.70;99.90
21001;DHT22;10658;50.920;12.238;2023-09-18T02:21:21;15.70;99.90
21001;DHT22;10658;50.920;12.238;2023-09-18T02:25:22;15.70;99.90
21001;DHT22;10658;50.920;12.238;2023-09-18T02:29:23;15.60;99.90
21001;DHT22;10658;50.920;12.238;2023-09-18T02:33:24;15.60;99.90
21001;DHT22;10658;50.920;12.238;2023-09-18T02:37:25;15.60;99.90
21001;DHT22;10658;50.920;12.238;2023-09-18T02:41:25;15.60;99.90
21001;DHT22;10658;50.920;12.238;2023-09-18T02:45:26;15.50;99.90
21001;DHT22;10658;50.920;12.238;2023-09-18T02:49:27;15.40;99.90
21001;DHT22;10658;50.920;12.238;2023-09-18T02:53:29;15.50;99.90
21001;DHT22;10658;50.920;12.238;2023-09-18T02:57:31;15.40;99.90
21001;DHT22;10658;50.920;12.238;2023-09-18T03:01:32;15.30;99.90
21001;DHT22;10658;50.920;12.238;2023-09-18T03:05:33;15.40;99.90
21001;DHT22;10658;50.920;12.238;2023-09-18T03:09:34;15.40;99.90
21001;DHT22;10658;50.920;12.238;2023-09-18T03:13:36;15.20;99.90
21001;DHT22;10658;50.920;12.238;2023-09-18T03:17:37;15.20;99.90
21001;DHT22;10658;50.920;12.238;2023-09-18T03:21:38;15.10;99.90
21001;DHT22;10658;50.920;12.238;2023-09-18T03:25:39;15.10;99.90
21001;DHT22;10658;50.920;12.238;2023-09-18T03:29:40;15.10;99.90
21001;DHT22;10658;50.920;12.238;2023-09-18T03:33:41;15.10;99.90
21001;DHT22;10658;50.920;12.238;2023-09-18T03:37:42;15.20;99.90
21001;DHT22;10658;50.920;12.238;2023-09-18T03:41:44;14.90;99.90
21001;DHT22;10658;50.920;12.238;2023-09-18T03:45:44;14.50;99.90
21001;DHT22;10658;50.920;12.238;2023-09-18T03:49:45;14.50;99.90
21001;DHT22;10658;50.920;12.238;2023-09-18T03:53:46;14.60;99.90
21001;DHT22;10658;50.920;12.238;2023-09-18T03:57:48;14.70;99.90
21001;DHT22;10658;50.920;12.238;2023-09-18T04:01:49;14.30;99.90
21001;DHT22;10658;50.920;12.238;2023-09-18T04:05:50;14.20;99.90
21001;DHT22;10658;50.920;12.238;2023-09-18T04:09:51;14.40;99.90
21001;DHT22;10658;50.920;12.238;2023-09-18T04:13:52;14.40;99.90
21001;DHT22;10658;50.920;12.238;2023-09-18T04:17:53;14.40;99.90
21001;DHT22;10658;50.920;12.238;2023-09-18T04:21:53;14.40;99.90
21001;DHT22;10658;50.920;12.238;2023-09-18T04:25:55;14.40;99.90
21001;DHT22;10658;50.920;12.238;2023-09-18T04:29:58;14.40;99.90
21001;DHT22;10658;50.920;12.238;2023-09-18T04:34:02;14.40;99.90
21001;DHT22;10658;50.920;12.238;2023-09-18T04:38:03;14.40;99.90
21001;DHT22;10658;50.920;12.238;2023-09-18T04:42:05;14.30;99.90
21001;DHT22;10658;50.920;12.238;2023-09-18T04:46:06;14.30;99.90
21001;DHT22;10658;50.920;12.238;2023-09-18T04:50:10;14.20;99.90
21001;DHT22;10658;50.920;12.238;2023-09-18T04:54:13;14.20;99.90
21001;DHT22;10658;50.920;12.238;2023-09-18T04:58:17;14.20;99.90
21001;DHT22;10658;50.920;12.238;2023-09-18T05:02:20;14.20;99.90
21001;DHT22;10658;50.920;12.238;2023-09-18T05:06:21;14.20;99.90
21001;DHT22;10658;50.920;12.238;2023-09-18T05:10:23;14.30;99.90
21001;DHT22;10658;50.920;12.238;2023-09-18T05:14:24;14.30;99.90
21001;DHT22;10658;50.920;12.238;2023-09-18T05:18:25;14.30;99.90
21001;DHT22;10658;50.920;12.238;2023-09-18T05:22:26;14.30;99.90
21001;DHT22;10658;50.920;12.238;2023-09-18T05:26:30;14.40;99.90
21001;DHT22;10658;50.920;12.238;2023-09-18T05:30:33;14.30;99.90
21001;DHT22;10658;50.920;12.238;2023-09-18T05:34:35;14.20;99.90
21001;DHT22;10658;50.920;12.238;2023-09-18T05:38:37;14.20;99.90
21001;DHT22;10658;50.920;12.238;2023-09-18T05:42:40;14.30;99.90
21001;DHT22;10658;50.920;12.238;2023-09-18T05:46:43;14.40;99.90
21001;DHT22;10658;50.920;12.238;2023-09-18T05:50:45;14.50;99.90
21001;DHT22;10658;50.920;12.238;2023-09-18T05:54:46;14.50;99.90
21001;DHT22;10658;50.920;12.238;2023-09-18T05:58:48;14.70;99.90
21001;DHT22;10658;50.920;12.238;2023-09-18T06:02:50;14.90;99.90
21001;DHT22;10658;50.920;12.238;2023-09-18T06:06:52;15.20;99.90
21001;DHT22;10658;50.920;12.238;2023-09-18T06:10:57;15.60;99.90
21001;DHT22;10658;50.920;12.238;2023-09-18T06:15:00;16.00;99.90
21001;DHT22;10658;50.920;12.238;2023-09-18T06:19:11;16.50;99.90
21001;DHT22;10658;50.920;12.238;2023-09-18T06:23:15;16.90;99.90
21001;DHT22;10658;50.920;12.238;2023-09-18T06:27:24;17.50;99.90
21001;DHT22;10658;50.920;12.238;2023-09-18T06:31:33;17.50;99.90
21001;DHT22;10658;50.920;12.238;2023-09-18T06:35:40;17.80;99.90
21001;DHT22;10658;50.920;12.238;2023-09-18T06:40:00;18.30;99.90
21001;DHT22;10658;50.920;12.238;2023-09-18T06:44:12;18.70;99.90
21001;DHT22;10658;50.920;12.238;2023-09-18T06:48:22;19.20;99.90
21001;DHT22;10658;50.920;12.238;2023-09-18T06:52:24;19.70;99.90
21001;DHT22;10658;50.920;12.238;2023-09-18T06:56:31;20.10;99.90
21001;DHT22;10658;50.920;12.238;2023-09-18T07:00:37;20.40;99.90
21001;DHT22;10658;50.920;12.238;2023-09-18T07:04:42;20.80;99.90
21001;DHT22;10658;50.920;12.238;2023-09-18T07:08:48;21.30;99.90
21001;DHT22;10658;50.920;12.238;2023-09-18T07:12:53;21.50;99.90
21001;DHT22;10658;50.920;12.238;2023-09-18T07:16:56;21.50;99.90
21001;DHT22;10658;50.920;12.238;2023-09-18T07:21:11;21.40;99.90
21001;DHT22;10658;50.920;12.238;2023-09-18T07:25:23;21.40;99.90
21001;DHT22;10658;50.920;12.238;2023-09-18T07:29:36;21.40;99.90
21001;DHT22;10658;50.920;12.238;2023-09-18T07:33:43;21.40;99.90
21001;DHT22;10658;50.920;12.238;2023-09-18T07:37:55;21.60;99.90
21001;DHT22;10658;50.920;12.238;2023-09-18T07:42:00;21.60;99.90
21001;DHT22;10658;50.920;12.238;2023-09-18T07:46:07;21.80;99.90
21001;DHT22;10658;50.920;12.238;2023-09-18T07:50:16;22.10;99.90
21001;DHT22;10658;50.920;12.238;2023-09-18T07:54:38;22.40;99.90
21001;DHT22;10658;50.920;12.238;2023-09-18T07:58:50;22.90;99.90
21001;DHT22;10658;50.920;12.238;2023-09-18T08:02:58;23.40;99.90
21001;DHT22;10658;50.920;12.238;2023-09-18T08:07:06;23.60;99.90
21001;DHT22;10658;50.920;12.238;2023-09-18T08:11:21;23.50;99.90
21001;DHT22;10658;50.920;12.238;2023-09-18T08:15:30;23.60;99.90
21001;DHT22;10658;50.920;12.238;2023-09-18T08:19:52;24.00;99.90
21001;DHT22;10658;50.920;12.238;2023-09-18T08:24:12;24.50;99.90
21001;DHT22;10658;50.920;12.238;2023-09-18T08:28:37;25.00;99.90
21001;DHT22;10658;50.920;12.238;2023-09-18T08:32:57;25.20;99.90
21001;DHT22;10658;50.920;12.238;2023-09-18T08:37:07;24.90;99.90
21001;DHT22;10658;50.920;12.238;2023-09-18T08:41:21;24.60;99.90
21001;DHT22;10658;50.920;12.238;2023-09-18T08:50:22;24.30;99.90
21001;DHT22;10658;50.920;12.238;2023-09-18T08:54:31;24.10;99.90
21001;DHT22;10658;50.920;12.238;2023-09-18T08:58:37;24.00;99.90
21001;DHT22;10658;50.920;12.238;2023-09-18T09:02:53;23.90;99.90
21001;DHT22;10658;50.920;12.238;2023-09-18T09:06:58;23.80;99.90
21001;DHT22;10658;50.920;12.238;2023-09-18T09:11:03;23.70;99.90
21001;DHT22;10658;50.920;12.238;2023-09-18T09:15:31;23.70;99.90
21001;DHT22;10658;50.920;12.238;2023-09-18T09:19:38;23.70;99.90
21001;DHT22;10658;50.920;12.238;2023-09-18T09:23:52;23.70;99.90
21001;DHT22;10658;50.920;12.238;2023-09-18T09:28:01;23.70;99.90
21001;DHT22;10658;50.920;12.238;2023-09-18T09:32:24;23.80;99.90
21001;DHT22;10658;50.920;12.238;2023-09-18T09:36:57;24.00;99.90
21001;DHT22;10658;50.920;12.238;2023-09-18T09:41:09;24.30;99.90
21001;DHT22;10658;50.920;12.238;2023-09-18T09:45:19;24.50;99.90
21001;DHT22;10658;50.920;12.238;2023-09-18T09:49:50;24.90;99.90
21001;DHT22;10658;50.920;12.238;2023-09-18T09:58:27;24.80;99.90
21001;DHT22;10658;50.920;12.238;2023-09-18T10:02:48;24.70;99.90
21001;DHT22;10658;50.920;12.238;2023-09-18T10:07:13;24.80;99.90
21001;DHT22;10658;50.920;12.238;2023-09-18T10:11:29;24.90;99.90
21001;DHT22;10658;50.920;12.238;2023-09-18T10:15:56;25.20;99.90
21001;DHT22;10658;50.920;12.238;2023-09-18T10:20:18;25.40;99.90
21001;DHT22;10658;50.920;12.238;2023-09-18T10:24:42;25.50;99.90
21001;DHT22;10658;50.920;12.238;2023-09-18T10:28:59;25.90;99.90
21001;DHT22;10658;50.920;12.238;2023-09-18T10:33:21;26.10;99.90
21001;DHT22;10658;50.920;12.238;2023-09-18T10:37:23;25.90;99.90
21001;DHT22;10658;50.920;12.238;2023-09-18T10:41:31;25.80;99.90
21001;DHT22;10658;50.920;12.238;2023-09-18T10:45:43;25.70;99.90
21001;DHT22;10658;50.920;12.238;2023-09-18T10:50:02;25.60;99.90
21001;DHT22;10658;50.920;12.238;2023-09-18T10:54:25;25.50;99.90
21001;DHT22;10658;50.920;12.238;2023-09-18T10:58:59;25.50;99.90
21001;DHT22;10658;50.920;12.238;2023-09-18T11:03:41;25.60;99.90
21001;DHT22;10658;50.920;12.238;2023-09-18T11:08:35;25.70;99.90
21001;DHT22;10658;50.920;12.238;2023-09-18T11:13:11;25.60;99.90
21001;DHT22;10658;50.920;12.238;2023-09-18T11:17:38;25.70;99.90
21001;DHT22;10658;50.920;12.238;2023-09-18T11:22:07;26.00;99.90
21001;DHT22;10658;50.920;12.238;2023-09-18T11:26:27;26.00;99.90
21001;DHT22;10658;50.920;12.238;2023-09-18T11:36:04;25.90;99.90
21001;DHT22;10658;50.920;12.238;2023-09-18T11:40:36;25.80;99.90
21001;DHT22;10658;50.920;12.238;2023-09-18T11:45:01;25.50;99.90
21001;DHT22;10658;50.920;12.238;2023-09-18T11:49:22;25.40;99.90
21001;DHT22;10658;50.920;12.238;2023-09-18T11:53:44;25.30;99.90
21001;DHT22;10658;50.920;12.238;2023-09-18T11:58:04;25.00;99.90
21001;DHT22;10658;50.920;12.238;2023-09-18T12:02:56;24.80;99.90
21001;DHT22;10658;50.920;12.238;2023-09-18T12:07:14;24.60;99.90
21001;DHT22;10658;50.920;12.238;2023-09-18T12:11:33;24.40;99.90
21001;DHT22;10658;50.920;12.238;2023-09-18T12:15:57;24.20;99.90
21001;DHT22;10658;50.920;12.238;2023-09-18T12:20:27;23.90;99.90
21001;DHT22;10658;50.920;12.238;2023-09-18T12:24:30;23.60;99.90
21001;DHT22;10658;50.920;12.238;2023-09-18T12:28:42;23.50;99.90
21001;DHT22;10658;50.920;12.238;2023-09-18T12:32:55;23.40;99.90
21001;DHT22;10658;50.920;12.238;2023-09-18T12:37:13;23.30;99.90
21001;DHT22;10658;50.920;12.238;2023-09-18T12:41:28;23.40;99.90
21001;DHT22;10658;50.920;12.238;2023-09-18T12:45:35;23.40;99.90
21001;DHT22;10658;50.920;12.238;2023-09-18T12:49:58;23.40;99.90
21001;DHT22;10658;50.920;12.238;2023-09-18T12:54:37;23.40;99.90
21001;DHT22;10658;50.920;12.238;2023-09-18T12:58:56;23.30;99.90
21001;DHT22;10658;50.920;12.238;2023-09-18T13:03:05;23.30;99.90
21001;DHT22;10658;50.920;12.238;2023-09-18T13:07:17;23.30;99.90
21001;DHT22;10658;50.920;12.238;2023-09-18T13:11:29;23.30;99.90
21001;DHT22;10658;50.920;12.238;2023-09-18T13:15:36;23.20;99.90
21001;DHT22;10658;50.920;12.238;2023-09-18T13:19:48;23.10;99.90
21001;DHT22;10658;50.920;12.238;2023-09-18T13:23:49;22.80;99.90
21001;DHT22;10658;50.920;12.238;2023-09-18T13:27:58;22.80;99.90
21001;DHT22;10658;50.920;12.238;2023-09-18T13:32:02;22.70;99.90
21001;DHT22;10658;50.920;12.238;2023-09-18T13:36:14;22.70;99.90
21001;DHT22;10658;50.920;12.238;2023-09-18T13:40:22;22.40;99.90
21001;DHT22;10658;50.920;12.238;2023-09-18T13:44:41;22.30;99.90
21001;DHT22;10658;50.920;12.238;2023-09-18T13:48:54;22.10;99.90
21001;DHT22;10658;50.920;12.238;2023-09-18T13:53:01;22.10;99.90
21001;DHT22;10658;50.920;12.238;2023-09-18T13:57:21;22.00;99.90
21001;DHT22;10658;50.920;12.238;2023-09-18T14:01:30;22.00;99.90
21001;DHT22;10658;50.920;12.238;2023-09-18T14:05:42;21.90;99.90
21001;DHT22;10658;50.920;12.238;2023-09-18T14:09:50;21.70;99.90
21001;DHT22;10658;50.920;12.238;2023-09-18T14:14:17;21.60;99.90
21001;DHT22;10658;50.920;12.238;2023-09-18T14:18:24;21.50;99.90
21001;DHT22;10658;50.920;12.238;2023-09-18T14:22:53;21.40;99.90
21001;DHT22;10658;50.920;12.238;2023-09-18T14:27:03;21.10;99.90
21001;DHT22;10658;50.920;12.238;2023-09-18T14:31:10;21.00;99.90
21001;DHT22;10658;50.920;12.238;2023-09-18T14:35:18;20.80;99.90
21001;DHT22;10658;50.920;12.238;2023-09-18T14:39:30;20.70;99.90
21001;DHT22;10658;50.920;12.238;2023-09-18T14:48:07;20.80;99.90
21001;DHT22;10658;50.920;12.238;2023-09-18T14:56:56;20.70;99.90
21001;DHT22;10658;50.920;12.238;2023-09-18T15:01:08;20.60;99.90
21001;DHT22;10658;50.920;12.238;2023-09-18T15:05:22;20.60;99.90
21001;DHT22;10658;50.920;12.238;2023-09-18T15:09:50;20.70;99.90
21001;DHT22;10658;50.920;12.238;2023-09-18T15:13:58;20.70;99.90
21001;DHT22;10658;50.920;12.238;2023-09-18T15:18:09;20.80;99.90
21001;DHT22;10658;50.920;12.238;2023-09-18T15:22:25;20.70;99.90
21001;DHT22;10658;50.920;12.238;2023-09-18T15:26:34;20.50;99.90
21001;DHT22;10658;50.920;12.238;2023-09-18T15:30:46;20.40;99.90
21001;DHT22;10658;50.920;12.238;2023-09-18T15:34:47;20.50;99.90
21001;DHT22;10658;50.920;12.238;2023-09-18T15:38:50;20.60;99.90
21001;DHT22;10658;50.920;12.238;2023-09-18T15:43:04;20.60;99.90
21001;DHT22;10658;50.920;12.238;2023-09-18T15:47:23;20.50;99.90
21001;DHT22;10658;50.920;12.238;2023-09-18T15:51:48;20.20;99.90
21001;DHT22;10658;50.920;12.238;2023-09-18T15:55:58;20.10;99.90
21001;DHT22;10658;50.920;12.238;2023-09-18T16:00:18;20.10;99.90
21001;DHT22;10658;50.920;12.238;2023-09-18T16:04:22;20.10;99.90
21001;DHT22;10658;50.920;12.238;2023-09-18T16:08:28;19.90;99.90
21001;DHT22;10658;50.920;12.238;2023-09-18T16:17:04;19.80;99.90
21001;DHT22;10658;50.920;12.238;2023-09-18T16:21:30;19.70;99.90
21001;DHT22;10658;50.920;12.238;2023-09-18T16:25:32;19.60;99.90
21001;DHT22;10658;50.920;12.238;2023-09-18T16:29:34;19.60;99.90
21001;DHT22;10658;50.920;12.238;2023-09-18T16:33:35;19.60;99.90
21001;DHT22;10658;50.920;12.238;2023-09-18T16:37:36;19.80;99.90
21001;DHT22;10658;50.920;12.238;2023-09-18T16:41:37;19.80;99.90
21001;DHT22;10658;50.920;12.238;2023-09-18T16:45:38;19.80;99.90
21001;DHT22;10658;50.920;12.238;2023-09-18T16:49:43;19.90;99.90
21001;DHT22;10658;50.920;12.238;2023-09-18T16:53:44;19.70;99.90
21001;DHT22;10658;50.920;12.238;2023-09-18T16:57:46;19.60;99.90
21001;DHT22;10658;50.920;12.238;2023-09-18T17:01:48;19.50;99.90
21001;DHT22;10658;50.920;12.238;2023-09-18T17:05:49;19.50;99.90
21001;DHT22;10658;50.920;12.238;2023-09-18T17:09:51;19.60;99.90
21001;DHT22;10658;50.920;12.238;2023-09-18T17:13:52;19.70;99.90
21001;DHT22;10658;50.920;12.238;2023-09-18T17:17:52;19.70;99.90
21001;DHT22;10658;50.920;12.238;2023-09-18T17:21:59;19.70;99.90
21001;DHT22;10658;50.920;12.238;2023-09-18T17:26:04;19.70;99.90
21001;DHT22;10658;50.920;12.238;2023-09-18T17:30:05;19.60;99.90
21001;DHT22;10658;50.920;12.238;2023-09-18T17:34:06;19.60;99.90
21001;DHT22;10658;50.920;12.238;2023-09-18T17:38:07;19.60;99.90
21001;DHT22;10658;50.920;12.238;2023-09-18T17:42:08;19.50;99.90
21001;DHT22;10658;50.920;12.238;2023-09-18T17:46:09;19.40;99.90
21001;DHT22;10658;50.920;12.238;2023-09-18T17:50:10;19.30;99.90
21001;DHT22;10658;50.920;12.238;2023-09-18T17:54:12;19.40;99.90
21001;DHT22;10658;50.920;12.238;2023-09-18T17:58:13;19.40;99.90
21001;DHT22;10658;50.920;12.238;2023-09-18T18:02:14;19.30;99.90
21001;DHT22;10658;50.920;12.238;2023-09-18T18:06:14;19.30;99.90
21001;DHT22;10658;50.920;12.238;2023-09-18T18:10:15;19.10;99.90
21001;DHT22;10658;50.920;12.238;2023-09-18T18:14:16;18.90;99.90
21001;DHT22;10658;50.920;12.238;2023-09-18T18:18:19;18.80;99.90
21001;DHT22;10658;50.920;12.238;2023-09-18T18:22:22;18.70;99.90
21001;DHT22;10658;50.920;12.238;2023-09-18T18:26:24;18.70;99.90
21001;DHT22;10658;50.920;12.238;2023-09-18T18:30:28;18.60;99.90
21001;DHT22;10658;50.920;12.238;2023-09-18T18:34:29;18.50;99.90
21001;DHT22;10658;50.920;12.238;2023-09-18T18:38:30;18.50;99.90
21001;DHT22;10658;50.920;12.238;2023-09-18T18:42:30;18.50;99.90
21001;DHT22;10658;50.920;12.238;2023-09-18T18:46:32;18.50;99.90
21001;DHT22;10658;50.920;12.238;2023-09-18T18:50:36;18.60;99.90
21001;DHT22;10658;50.920;12.238;2023-09-18T18:54:39;18.50;99.90
21001;DHT22;10658;50.920;12.238;2023-09-18T18:58:41;18.40;99.90
21001;DHT22;10658;50.920;12.238;2023-09-18T19:02:42;18.30;99.90
21001;DHT22;10658;50.920;12.238;2023-09-18T19:06:43;18.20;99.90
21001;DHT22;10658;50.920;12.238;2023-09-18T19:10:44;18.20;99.90
21001;DHT22;10658;50.920;12.238;2023-09-18T19:14:45;18.00;99.90
21001;DHT22;10658;50.920;12.238;2023-09-18T19:18:46;18.00;99.90
21001;DHT22;10658;50.920;12.238;2023-09-18T19:22:46;17.90;99.90
21001;DHT22;10658;50.920;12.238;2023-09-18T19:26:47;17.80;99.90
21001;DHT22;10658;50.920;12.238;2023-09-18T19:30:49;17.80;99.90
21001;DHT22;10658;50.920;12.238;2023-09-18T19:34:53;17.70;99.90
21001;DHT22;10658;50.920;12.238;2023-09-18T19:38:54;17.60;99.90
21001;DHT22;10658;50.920;12.238;2023-09-18T19:42:55;17.50;99.90
21001;DHT22;10658;50.920;12.238;2023-09-18T19:46:55;17.60;99.90
21001;DHT22;10658;50.920;12.238;2023-09-18T19:50:58;17.50;99.90
21001;DHT22;10658;50.920;12.238;2023-09-18T19:55:01;17.50;99.90
21001;DHT22;10658;50.920;12.238;2023-09-18T19:59:02;17.50;99.90
21001;DHT22;10658;50.920;12.238;2023-09-18T20:03:03;17.50;99.90
21001;DHT22;10658;50.920;12.238;2023-09-18T20:07:04;17.50;99.90
21001;DHT22;10658;50.920;12.238;2023-09-18T20:11:06;17.40;99.90
21001;DHT22;10658;50.920;12.238;2023-09-18T20:15:08;17.30;99.90
21001;DHT22;10658;50.920;12.238;2023-09-18T20:19:09;17.20;99.90
21001;DHT22;10658;50.920;12.238;2023-09-18T20:23:14;17.30;99.90
21001;DHT22;10658;50.920;12.238;2023-09-18T20:27:15;17.20;99.90
21001;DHT22;10658;50.920;12.238;2023-09-18T20:31:15;17.20;99.90
21001;DHT22;10658;50.920;12.238;2023-09-18T20:35:16;17.20;99.90
21001;DHT22;10658;50.920;12.238;2023-09-18T20:39:17;17.10;99.90
21001;DHT22;10658;50.920;12.238;2023-09-18T20:43:18;17.20;99.90
21001;DHT22;10658;50.920;12.238;2023-09-18T20:47:25;17.10;99.90
21001;DHT22;10658;50.920;12.238;2023-09-18T20:51:26;17.00;99.90
21001;DHT22;10658;50.920;12.238;2023-09-18T20:55:26;16.90;99.90
21001;DHT22;10658;50.920;12.238;2023-09-18T20:59:29;16.90;99.90
21001;DHT22;10658;50.920;12.238;2023-09-18T21:03:31;16.90;99.90
21001;DHT22;10658;50.920;12.238;2023-09-18T21:07:32;17.00;99.90
21001;DHT22;10658;50.920;12.238;2023-09-18T21:11:34;16.90;99.90
21001;DHT22;10658;50.920;12.238;2023-09-18T21:15:34;16.90;99.90
21001;DHT22;10658;50.920;12.238;2023-09-18T21:19:36;17.00;99.90
21001;DHT22;10658;50.920;12.238;2023-09-18T21:23:37;17.00;99.90
21001;DHT22;10658;50.920;12.238;2023-09-18T21:27:38;16.90;99.90
21001;DHT22;10658;50.920;12.238;2023-09-18T21:31:39;16.90;99.90
21001;DHT22;10658;50.920;12.238;2023-09-18T21:35:40;16.90;99.90
21001;DHT22;10658;50.920;12.238;2023-09-18T21:39:41;16.80;99.90
21001;DHT22;10658;50.920;12.238;2023-09-18T21:43:43;16.80;99.90
21001;DHT22;10658;50.920;12.238;2023-09-18T21:47:44;16.80;99.90
21001;DHT22;10658;50.920;12.238;2023-09-18T21:51:45;16.70;99.90
21001;DHT22;10658;50.920;12.238;2023-09-18T21:55:46;16.80;99.90
21001;DHT22;10658;50.920;12.238;2023-09-18T21:59:46;16.70;99.90
21001;DHT22;10658;50.920;12.238;2023-09-18T22:03:47;16.70;99.90
21001;DHT22;10658;50.920;12.238;2023-09-18T22:07:48;16.70;99.90
21001;DHT22;10658;50.920;12.238;2023-09-18T22:11:49;16.70;99.90
21001;DHT22;10658;50.920;12.238;2023-09-18T22:15:51;16.70;99.90
21001;DHT22;10658;50.920;12.238;2023-09-18T22:24:30;16.60;99.90
21001;DHT22;10658;50.920;12.238;2023-09-18T22:28:30;16.60;99.90
21001;DHT22;10658;50.920;12.238;2023-09-18T22:32:31;16.60;99.90
21001;DHT22;10658;50.920;12.238;2023-09-18T22:36:34;16.60;99.90
21001;DHT22;10658;50.920;12.238;2023-09-18T22:57:57;16.80;99.90
21001;DHT22;10658;50.920;12.238;2023-09-18T23:01:58;16.80;99.90
21001;DHT22;10658;50.920;12.238;2023-09-18T23:05:59;16.80;99.90
21001;DHT22;10658;50.920;12.238;2023-09-18T23:10:00;16.90;99.90
21001;DHT22;10658;50.920;12.238;2023-09-18T23:14:01;16.90;99.90
21001;DHT22;10658;50.920;12.238;2023-09-18T23:18:04;17.00;99.90
21001;DHT22;10658;50.920;12.238;2023-09-18T23:22:08;17.00;99.90
21001;DHT22;10658;50.920;12.238;2023-09-18T23:26:12;17.00;99.90
21001;DHT22;10658;50.920;12.238;2023-09-18T23:30:15;17.00;99.90
21001;DHT22;10658;50.920;12.238;2023-09-18T23:34:18;17.10;99.90
21001;DHT22;10658;50.920;12.238;2023-09-18T23:38:18;17.00;99.90
21001;DHT22;10658;50.920;12.238;2023-09-18T23:42:24;16.90;99.90
21001;DHT22;10658;50.920;12.238;2023-09-18T23:46:25;16.80;99.90
21001;DHT22;10658;50.920;12.238;2023-09-18T23:50:26;16.80;99.90
21001;DHT22;10658;50.920;12.238;2023-09-18T23:54:30;16.80;99.90
21001;DHT22;10658;50.920;12.238;2023-09-18T23:58:31;16.90;99.90
